createdAt,value
2022-12-09T00:00:52.156Z,0.00
2022-12-09T00:01:52.098Z,0.00
2022-12-09T00:02:52.267Z,0.00
2022-12-09T00:03:52.343Z,0.00
2022-12-09T00:04:52.134Z,0.00
2022-12-09T00:05:52.198Z,0.00
2022-12-09T00:06:52.025Z,0.00
2022-12-09T00:07:52.258Z,0.00
2022-12-09T00:08:52.293Z,0.00
2022-12-09T00:09:51.993Z,0.00
2022-12-09T00:10:51.980Z,0.00
2022-12-09T00:11:51.970Z,0.00
2022-12-09T00:12:52.154Z,0.00
2022-12-09T00:13:51.981Z,0.00
2022-12-09T00:14:52.056Z,0.00
2022-12-09T00:15:52.070Z,0.00
2022-12-09T00:16:52.110Z,0.00
2022-12-09T00:17:51.916Z,0.00
2022-12-09T00:18:51.950Z,0.00
2022-12-09T00:19:51.896Z,0.00
2022-12-09T00:20:51.886Z,0.00
2022-12-09T00:21:51.893Z,0.00
2022-12-09T00:22:51.870Z,0.00
2022-12-09T00:23:52.105Z,0.00
2022-12-09T00:24:51.901Z,0.00
2022-12-09T00:25:51.873Z,0.00
2022-12-09T00:26:51.828Z,0.00
2022-12-09T00:27:51.815Z,0.00
2022-12-09T00:28:51.929Z,0.00
2022-12-09T00:29:51.798Z,0.00
2022-12-09T00:30:51.881Z,0.00
2022-12-09T00:31:51.960Z,0.00
2022-12-09T00:32:51.812Z,0.00
2022-12-09T00:33:51.773Z,0.00
2022-12-09T00:34:51.796Z,0.00
2022-12-09T00:35:51.751Z,0.00
2022-12-09T00:36:51.987Z,0.00
2022-12-09T00:37:51.921Z,0.00
2022-12-09T00:38:51.719Z,0.00
2022-12-09T00:39:51.895Z,0.00
2022-12-09T00:40:51.902Z,0.00
2022-12-09T00:41:51.778Z,0.00
2022-12-09T00:42:51.703Z,0.00
2022-12-09T00:43:51.898Z,0.00
2022-12-09T00:44:51.660Z,0.00
2022-12-09T00:45:51.723Z,0.00
2022-12-09T00:46:51.676Z,0.00
2022-12-09T00:47:51.760Z,0.00
2022-12-09T00:48:51.629Z,0.00
2022-12-09T00:49:51.615Z,0.00
2022-12-09T00:50:51.591Z,0.00
2022-12-09T00:51:51.587Z,0.00
2022-12-09T00:52:51.715Z,0.00
2022-12-09T00:53:51.631Z,0.00
2022-12-09T00:54:51.722Z,0.00
2022-12-09T00:55:51.605Z,0.00
2022-12-09T00:56:51.604Z,0.00
2022-12-09T00:57:51.536Z,0.00
2022-12-09T00:58:51.544Z,0.00
2022-12-09T00:59:51.503Z,0.00
2022-12-09T01:00:51.767Z,0.00
2022-12-09T01:01:51.540Z,0.00
2022-12-09T01:02:51.683Z,0.00
2022-12-09T01:03:51.695Z,0.00
2022-12-09T01:04:51.512Z,0.00
2022-12-09T01:05:51.641Z,0.00
2022-12-09T01:06:51.462Z,0.00
2022-12-09T01:07:51.638Z,0.00
2022-12-09T01:08:51.658Z,0.00
2022-12-09T01:09:51.433Z,0.00
2022-12-09T01:10:51.392Z,0.00
2022-12-09T01:11:51.566Z,0.00
2022-12-09T01:12:51.379Z,0.00
2022-12-09T01:13:51.392Z,0.00
2022-12-09T01:14:51.462Z,0.00
2022-12-09T01:15:51.536Z,0.00
2022-12-09T01:16:51.437Z,0.00
2022-12-09T01:17:51.411Z,0.00
2022-12-09T01:18:51.333Z,0.00
2022-12-09T01:19:51.328Z,0.00
2022-12-09T01:20:51.560Z,0.00
2022-12-09T01:21:51.460Z,0.00
2022-12-09T01:22:51.485Z,0.00
2022-12-09T01:23:51.402Z,0.00
2022-12-09T01:24:51.362Z,0.00
2022-12-09T01:25:51.556Z,0.00
2022-12-09T01:26:51.257Z,0.00
2022-12-09T01:27:51.361Z,0.00
2022-12-09T01:28:51.302Z,0.00
2022-12-09T01:29:51.215Z,0.00
2022-12-09T01:30:51.502Z,0.00
2022-12-09T01:31:51.610Z,0.00
2022-12-09T01:32:51.259Z,0.00
2022-12-09T01:33:51.177Z,0.00
2022-12-09T01:34:51.241Z,0.00
2022-12-09T01:35:51.424Z,0.00
2022-12-09T01:36:51.212Z,0.00
2022-12-09T01:37:51.161Z,0.00
2022-12-09T01:38:51.165Z,0.00
2022-12-09T01:39:51.375Z,0.00
2022-12-09T01:40:51.397Z,0.00
2022-12-09T01:41:51.118Z,0.00
2022-12-09T01:42:51.090Z,0.00
2022-12-09T01:43:51.066Z,0.00
2022-12-09T01:44:51.211Z,0.00
2022-12-09T01:45:51.287Z,0.00
2022-12-09T01:46:51.430Z,0.00
2022-12-09T01:47:51.326Z,0.00
2022-12-09T01:48:51.014Z,0.00
2022-12-09T01:49:51.060Z,0.00
2022-12-09T01:50:51.061Z,0.00
2022-12-09T01:51:51.000Z,0.00
2022-12-09T01:52:51.059Z,0.00
2022-12-09T01:53:50.968Z,0.00
2022-12-09T01:54:51.231Z,0.00
2022-12-09T01:55:51.104Z,0.00
2022-12-09T01:56:50.942Z,0.00
2022-12-09T01:57:51.093Z,0.00
2022-12-09T01:58:50.949Z,0.00
2022-12-09T01:59:51.060Z,0.00
2022-12-09T02:00:50.995Z,0.00
2022-12-09T02:01:50.915Z,0.00
2022-12-09T02:02:51.338Z,0.00
2022-12-09T02:03:50.900Z,0.00
2022-12-09T02:04:50.918Z,0.00
2022-12-09T02:05:51.098Z,0.00
2022-12-09T02:06:51.007Z,0.00
2022-12-09T02:07:50.927Z,0.00
2022-12-09T02:08:50.948Z,0.00
2022-12-09T02:09:50.950Z,0.00
2022-12-09T02:10:50.816Z,0.00
2022-12-09T02:11:51.066Z,0.00
2022-12-09T02:12:50.789Z,0.00
2022-12-09T02:13:50.866Z,0.00
2022-12-09T02:14:51.110Z,0.00
2022-12-09T02:15:50.999Z,0.00
2022-12-09T02:16:50.842Z,0.00
2022-12-09T02:17:50.870Z,0.00
2022-12-09T02:18:50.700Z,0.00
2022-12-09T02:19:50.698Z,0.00
2022-12-09T02:20:50.840Z,0.00
2022-12-09T02:21:50.944Z,0.00
2022-12-09T02:22:50.981Z,0.00
2022-12-09T02:23:51.066Z,0.00
2022-12-09T02:24:50.652Z,0.00
2022-12-09T02:25:50.922Z,0.00
2022-12-09T02:26:50.726Z,0.00
2022-12-09T02:27:51.029Z,0.00
2022-12-09T02:28:50.617Z,0.00
2022-12-09T02:29:50.651Z,0.00
2022-12-09T02:30:50.919Z,0.00
2022-12-09T02:31:50.935Z,0.00
2022-12-09T02:32:50.695Z,0.00
2022-12-09T02:33:50.697Z,0.00
2022-12-09T02:34:50.561Z,0.00
2022-12-09T02:35:50.566Z,0.00
2022-12-09T02:36:50.582Z,0.00
2022-12-09T02:37:50.552Z,0.00
2022-12-09T02:38:50.531Z,0.00
2022-12-09T02:39:50.516Z,0.00
2022-12-09T02:40:50.528Z,0.00
2022-12-09T02:41:50.728Z,0.00
2022-12-09T02:42:50.744Z,0.00
2022-12-09T02:43:50.814Z,0.00
2022-12-09T02:44:50.670Z,0.00
2022-12-09T02:45:50.593Z,0.00
2022-12-09T02:46:50.506Z,0.00
2022-12-09T02:47:50.606Z,0.00
2022-12-09T02:48:50.723Z,0.00
2022-12-09T02:49:50.660Z,0.00
2022-12-09T02:50:50.676Z,0.00
2022-12-09T02:51:50.533Z,0.00
2022-12-09T02:52:50.535Z,0.00
2022-12-09T02:53:50.510Z,0.00
2022-12-09T02:54:50.686Z,0.00
2022-12-09T02:55:50.525Z,0.00
2022-12-09T02:56:50.374Z,0.00
2022-12-09T02:57:50.577Z,0.00
2022-12-09T02:58:50.394Z,0.00
2022-12-09T02:59:50.346Z,0.00
2022-12-09T03:00:50.695Z,0.00
2022-12-09T03:01:50.455Z,0.00
2022-12-09T03:02:50.586Z,0.00
2022-12-09T03:03:50.771Z,0.00
2022-12-09T03:04:50.593Z,0.00
2022-12-09T03:05:50.297Z,0.00
2022-12-09T03:06:50.362Z,0.00
2022-12-09T03:07:50.569Z,0.00
2022-12-09T03:08:50.393Z,0.00
2022-12-09T03:09:50.526Z,0.00
2022-12-09T03:10:50.194Z,0.00
2022-12-09T03:11:50.202Z,0.00
2022-12-09T03:12:50.169Z,0.00
2022-12-09T03:13:50.617Z,0.00
2022-12-09T03:14:50.190Z,0.00
2022-12-09T03:15:50.172Z,0.00
2022-12-09T03:16:50.232Z,0.00
2022-12-09T03:17:50.215Z,0.00
2022-12-09T03:18:50.159Z,0.00
2022-12-09T03:19:50.376Z,0.00
2022-12-09T03:20:50.355Z,0.00
2022-12-09T03:21:50.109Z,0.00
2022-12-09T03:22:50.383Z,0.00
2022-12-09T03:23:50.067Z,0.00
2022-12-09T03:24:50.346Z,0.00
2022-12-09T03:25:50.147Z,0.00
2022-12-09T03:26:50.315Z,0.00
2022-12-09T03:27:50.036Z,0.00
2022-12-09T03:28:50.132Z,0.00
2022-12-09T03:29:50.001Z,0.00
2022-12-09T03:30:50.407Z,0.00
2022-12-09T03:31:50.054Z,0.00
2022-12-09T03:32:50.037Z,0.00
2022-12-09T03:33:50.438Z,0.00
2022-12-09T03:34:50.377Z,0.00
2022-12-09T03:35:50.231Z,0.00
2022-12-09T03:36:49.939Z,0.00
2022-12-09T03:37:50.168Z,0.00
2022-12-09T03:38:49.920Z,0.00
2022-12-09T03:39:50.095Z,0.00
2022-12-09T03:40:50.214Z,0.00
2022-12-09T03:41:49.886Z,0.00
2022-12-09T03:42:49.870Z,0.00
2022-12-09T03:43:50.006Z,0.00
2022-12-09T03:44:49.894Z,0.00
2022-12-09T03:45:50.241Z,0.00
2022-12-09T03:46:49.955Z,0.00
2022-12-09T03:47:49.882Z,0.00
2022-12-09T03:48:50.048Z,0.00
2022-12-09T03:49:50.005Z,0.00
2022-12-09T03:50:49.789Z,0.00
2022-12-09T03:51:49.854Z,0.00
2022-12-09T03:52:50.099Z,0.00
2022-12-09T03:53:49.844Z,0.00
2022-12-09T03:54:49.769Z,0.00
2022-12-09T03:55:49.798Z,0.00
2022-12-09T03:56:49.935Z,0.00
2022-12-09T03:57:49.759Z,0.00
2022-12-09T03:58:49.769Z,0.00
2022-12-09T03:59:49.711Z,0.00
2022-12-09T04:00:50.072Z,0.00
2022-12-09T04:01:50.157Z,0.00
2022-12-09T04:02:49.941Z,0.00
2022-12-09T04:03:49.755Z,0.00
2022-12-09T04:04:49.709Z,0.00
2022-12-09T04:05:49.902Z,0.00
2022-12-09T04:06:49.839Z,0.00
2022-12-09T04:07:49.657Z,0.00
2022-12-09T04:08:49.729Z,0.00
2022-12-09T04:09:49.958Z,0.00
2022-12-09T04:10:49.841Z,0.00
2022-12-09T04:11:49.903Z,0.00
2022-12-09T04:12:49.591Z,0.00
2022-12-09T04:13:49.583Z,0.00
2022-12-09T04:14:49.728Z,0.00
2022-12-09T04:15:49.804Z,0.00
2022-12-09T04:16:49.782Z,0.00
2022-12-09T04:17:49.798Z,0.00
2022-12-09T04:18:49.855Z,0.00
2022-12-09T04:19:49.512Z,0.00
2022-12-09T04:20:49.626Z,0.00
2022-12-09T04:21:49.490Z,0.00
2022-12-09T04:22:49.484Z,0.00
2022-12-09T04:23:49.628Z,0.00
2022-12-09T04:24:49.750Z,0.00
2022-12-09T04:25:49.452Z,0.00
2022-12-09T04:26:49.447Z,0.00
2022-12-09T04:27:49.422Z,0.00
2022-12-09T04:28:49.489Z,0.00
2022-12-09T04:29:49.436Z,0.00
2022-12-09T04:30:49.772Z,0.00
2022-12-09T04:31:49.701Z,0.00
2022-12-09T04:32:49.538Z,0.00
2022-12-09T04:33:49.523Z,0.00
2022-12-09T04:34:49.438Z,0.00
2022-12-09T04:35:49.768Z,0.00
2022-12-09T04:36:49.505Z,0.00
2022-12-09T04:37:49.342Z,0.00
2022-12-09T04:38:49.418Z,0.00
2022-12-09T04:39:49.343Z,0.00
2022-12-09T04:40:49.527Z,0.00
2022-12-09T04:41:49.349Z,0.00
2022-12-09T04:42:49.414Z,0.00
2022-12-09T04:43:49.280Z,0.00
2022-12-09T04:44:49.620Z,0.00
2022-12-09T04:45:49.440Z,0.00
2022-12-09T04:46:49.434Z,0.00
2022-12-09T04:47:49.567Z,0.00
2022-12-09T04:48:49.413Z,0.00
2022-12-09T04:49:49.233Z,0.00
2022-12-09T04:50:49.622Z,0.00
2022-12-09T04:51:49.218Z,0.00
2022-12-09T04:52:49.606Z,0.00
2022-12-09T04:53:49.472Z,0.00
2022-12-09T04:54:49.164Z,0.00
2022-12-09T04:55:49.151Z,0.00
2022-12-09T04:56:49.509Z,0.00
2022-12-09T04:57:49.346Z,0.00
2022-12-09T04:58:49.271Z,0.00
2022-12-09T04:59:49.452Z,0.00
2022-12-09T05:00:49.510Z,0.00
2022-12-09T05:01:49.214Z,0.00
2022-12-09T05:02:49.191Z,0.00
2022-12-09T05:03:49.353Z,0.00
2022-12-09T05:04:49.326Z,0.00
2022-12-09T05:05:49.457Z,0.00
2022-12-09T05:06:49.460Z,0.00
2022-12-09T05:07:49.316Z,0.00
2022-12-09T05:08:49.227Z,0.00
2022-12-09T05:09:49.492Z,0.00
2022-12-09T05:10:49.070Z,0.00
2022-12-09T05:11:49.107Z,0.00
2022-12-09T05:12:49.224Z,0.00
2022-12-09T05:13:49.216Z,0.00
2022-12-09T05:14:49.089Z,0.00
2022-12-09T05:15:49.236Z,0.00
2022-12-09T05:16:49.034Z,0.00
2022-12-09T05:17:49.172Z,0.00
2022-12-09T05:18:49.130Z,0.00
2022-12-09T05:19:49.158Z,0.00
2022-12-09T05:20:48.948Z,0.00
2022-12-09T05:21:49.182Z,0.00
2022-12-09T05:22:48.888Z,0.00
2022-12-09T05:23:49.358Z,0.00
2022-12-09T05:24:49.183Z,0.00
2022-12-09T05:25:49.159Z,0.00
2022-12-09T05:26:49.025Z,0.00
2022-12-09T05:27:48.848Z,0.00
2022-12-09T05:28:48.915Z,0.00
2022-12-09T05:29:48.833Z,0.00
2022-12-09T05:30:49.176Z,0.00
2022-12-09T05:31:49.274Z,0.00
2022-12-09T05:32:48.872Z,0.00
2022-12-09T05:33:49.143Z,0.00
2022-12-09T05:34:49.109Z,0.00
2022-12-09T05:35:52.641Z,0.00
2022-12-09T05:36:48.768Z,0.00
2022-12-09T05:37:49.136Z,0.00
2022-12-09T05:38:49.115Z,0.00
2022-12-09T05:39:48.769Z,0.00
2022-12-09T05:40:49.116Z,0.00
2022-12-09T05:41:49.036Z,0.00
2022-12-09T05:42:49.051Z,0.00
2022-12-09T05:43:48.974Z,0.00
2022-12-09T05:44:48.809Z,0.00
2022-12-09T05:45:49.086Z,0.00
2022-12-09T05:46:48.677Z,0.00
2022-12-09T05:47:49.139Z,0.00
2022-12-09T05:48:49.055Z,0.00
2022-12-09T05:49:49.004Z,0.00
2022-12-09T05:50:48.999Z,0.00
2022-12-09T05:51:48.619Z,0.00
2022-12-09T05:52:48.911Z,0.00
2022-12-09T05:53:48.807Z,0.00
2022-12-09T05:54:48.631Z,0.00
2022-12-09T05:55:48.891Z,0.00
2022-12-09T05:56:49.124Z,0.00
2022-12-09T05:57:48.814Z,0.00
2022-12-09T05:58:48.624Z,0.00
2022-12-09T05:59:48.711Z,0.00
2022-12-09T06:00:48.617Z,0.00
2022-12-09T06:01:48.807Z,0.00
2022-12-09T06:02:48.725Z,0.00
2022-12-09T06:03:49.048Z,0.00
2022-12-09T06:04:48.945Z,0.00
2022-12-09T06:05:48.791Z,0.00
2022-12-09T06:06:48.926Z,0.00
2022-12-09T06:07:48.910Z,0.00
2022-12-09T06:08:48.694Z,0.00
2022-12-09T06:09:48.828Z,0.00
2022-12-09T06:10:48.907Z,0.00
2022-12-09T06:11:48.495Z,0.00
2022-12-09T06:12:48.461Z,0.00
2022-12-09T06:13:48.417Z,0.00
2022-12-09T06:14:48.765Z,0.00
2022-12-09T06:15:48.572Z,0.00
2022-12-09T06:16:48.784Z,0.00
2022-12-09T06:17:48.862Z,0.00
2022-12-09T06:18:48.556Z,0.00
2022-12-09T06:19:48.473Z,0.00
2022-12-09T06:20:48.556Z,0.00
2022-12-09T06:21:48.396Z,0.00
2022-12-09T06:22:48.570Z,0.00
2022-12-09T06:23:48.335Z,0.00
2022-12-09T06:24:51.135Z,0.00
2022-12-09T06:25:48.419Z,0.00
2022-12-09T06:26:48.399Z,0.00
2022-12-09T06:27:48.614Z,0.00
2022-12-09T06:28:48.308Z,0.00
2022-12-09T06:29:48.453Z,0.00
2022-12-09T06:30:48.417Z,0.00
2022-12-09T06:31:48.321Z,0.00
2022-12-09T06:32:48.443Z,0.00
2022-12-09T06:33:57.686Z,0.00
2022-12-09T06:34:48.611Z,0.00
2022-12-09T06:35:48.439Z,0.00
2022-12-09T06:36:48.167Z,0.00
2022-12-09T06:37:48.187Z,0.00
2022-12-09T06:38:48.391Z,0.00
2022-12-09T06:39:48.553Z,0.00
2022-12-09T06:40:48.573Z,0.00
2022-12-09T06:41:48.513Z,0.00
2022-12-09T06:42:48.221Z,0.00
2022-12-09T06:43:48.256Z,0.00
2022-12-09T06:44:48.397Z,0.00
2022-12-09T06:45:48.073Z,0.00
2022-12-09T06:46:48.167Z,0.00
2022-12-09T06:47:48.447Z,0.00
2022-12-09T06:48:48.382Z,0.00
2022-12-09T06:49:48.571Z,0.00
2022-12-09T06:50:48.007Z,0.00
2022-12-09T06:51:48.060Z,0.00
2022-12-09T06:52:48.383Z,0.00
2022-12-09T06:53:48.255Z,0.00
2022-12-09T06:54:48.163Z,0.00
2022-12-09T06:55:48.148Z,0.00
2022-12-09T06:56:48.391Z,0.00
2022-12-09T06:57:48.060Z,0.00
2022-12-09T06:58:48.334Z,0.00
2022-12-09T06:59:48.176Z,0.00
2022-12-09T07:00:48.213Z,0.00
2022-12-09T07:01:48.240Z,0.00
2022-12-09T07:02:47.996Z,0.00
2022-12-09T07:03:48.196Z,0.00
2022-12-09T07:04:48.102Z,0.00
2022-12-09T07:05:48.122Z,0.00
2022-12-09T07:06:48.073Z,0.00
2022-12-09T07:07:47.968Z,0.00
2022-12-09T07:08:48.034Z,0.00
2022-12-09T07:09:47.914Z,0.00
2022-12-09T07:10:51.749Z,0.00
2022-12-09T07:11:48.099Z,0.00
2022-12-09T07:12:48.246Z,0.00
2022-12-09T07:13:47.948Z,0.00
2022-12-09T07:14:48.040Z,0.00
2022-12-09T07:15:47.959Z,0.00
2022-12-09T07:16:48.068Z,0.00
2022-12-09T07:17:47.791Z,0.00
2022-12-09T07:18:48.007Z,0.00
2022-12-09T07:19:48.303Z,0.00
2022-12-09T07:20:47.755Z,0.00
2022-12-09T07:21:47.920Z,0.00
2022-12-09T07:22:47.836Z,0.00
2022-12-09T07:23:47.881Z,0.00
2022-12-09T07:24:48.148Z,0.00
2022-12-09T07:25:47.933Z,0.00
2022-12-09T07:26:47.808Z,0.00
2022-12-09T07:27:47.829Z,0.00
2022-12-09T07:28:48.124Z,0.00
2022-12-09T07:29:48.053Z,0.00
2022-12-09T07:30:48.116Z,5.63
2022-12-09T07:31:47.916Z,5.63
2022-12-09T07:32:47.982Z,5.63
2022-12-09T07:33:47.690Z,5.63
2022-12-09T07:34:47.937Z,5.63
2022-12-09T07:35:47.810Z,5.63
2022-12-09T07:36:47.598Z,5.63
2022-12-09T07:37:47.638Z,5.63
2022-12-09T07:38:47.616Z,5.63
2022-12-09T07:39:47.918Z,5.63
2022-12-09T07:40:47.561Z,5.63
2022-12-09T07:41:47.784Z,5.63
2022-12-09T07:42:47.634Z,5.63
2022-12-09T07:43:47.576Z,5.63
2022-12-09T07:44:47.863Z,5.63
2022-12-09T07:45:47.839Z,5.63
2022-12-09T07:46:47.934Z,5.63
2022-12-09T07:47:47.645Z,5.63
2022-12-09T07:48:48.071Z,5.63
2022-12-09T07:49:47.685Z,5.63
2022-12-09T07:50:47.897Z,5.63
2022-12-09T07:51:47.704Z,5.63
2022-12-09T07:52:47.517Z,5.63
2022-12-09T07:53:47.843Z,5.63
2022-12-09T07:54:47.381Z,5.63
2022-12-09T07:55:47.401Z,5.63
2022-12-09T07:56:47.880Z,5.63
2022-12-09T07:57:47.875Z,5.63
2022-12-09T07:58:47.821Z,5.63
2022-12-09T07:59:47.496Z,5.63
2022-12-09T08:00:47.323Z,5.63
2022-12-09T08:01:47.343Z,5.63
2022-12-09T08:02:47.350Z,11.25
2022-12-09T08:03:47.611Z,11.25
2022-12-09T08:04:47.757Z,11.25
2022-12-09T08:05:47.876Z,11.25
2022-12-09T08:06:47.557Z,11.25
2022-12-09T08:07:47.539Z,11.25
2022-12-09T08:08:47.512Z,11.25
2022-12-09T08:09:47.386Z,11.25
2022-12-09T08:10:47.693Z,11.25
2022-12-09T08:11:47.333Z,11.25
2022-12-09T08:12:47.470Z,11.25
2022-12-09T08:13:47.536Z,11.25
2022-12-09T08:14:47.613Z,11.25
2022-12-09T08:15:47.579Z,11.25
2022-12-09T08:16:47.642Z,11.25
2022-12-09T08:17:47.333Z,11.25
2022-12-09T08:18:47.334Z,11.25
2022-12-09T08:19:47.538Z,11.25
2022-12-09T08:20:47.241Z,16.88
2022-12-09T08:21:52.883Z,16.88
2022-12-09T08:22:47.456Z,16.88
2022-12-09T08:23:47.231Z,16.88
2022-12-09T08:24:47.453Z,22.50
2022-12-09T08:25:47.346Z,22.50
2022-12-09T08:26:47.375Z,22.50
2022-12-09T08:27:47.074Z,22.50
2022-12-09T08:28:47.694Z,16.88
2022-12-09T08:29:47.431Z,16.88
2022-12-09T08:30:47.384Z,16.88
2022-12-09T08:31:47.372Z,16.88
2022-12-09T08:32:47.067Z,16.88
2022-12-09T08:33:47.409Z,16.88
2022-12-09T08:34:47.389Z,16.88
2022-12-09T08:35:47.016Z,16.88
2022-12-09T08:36:47.121Z,16.88
2022-12-09T08:37:47.229Z,16.88
2022-12-09T08:38:47.449Z,16.88
2022-12-09T08:39:47.229Z,16.88
2022-12-09T08:40:46.934Z,16.88
2022-12-09T08:41:47.291Z,16.88
2022-12-09T08:42:47.048Z,16.88
2022-12-09T08:43:46.980Z,16.88
2022-12-09T08:44:46.927Z,16.88
2022-12-09T08:45:47.058Z,16.88
2022-12-09T08:46:47.307Z,16.88
2022-12-09T08:47:47.030Z,16.88
2022-12-09T08:48:47.381Z,16.88
2022-12-09T08:49:47.379Z,16.88
2022-12-09T08:50:46.886Z,16.88
2022-12-09T08:51:46.838Z,16.88
2022-12-09T08:52:47.215Z,16.88
2022-12-09T08:53:46.914Z,16.88
2022-12-09T08:54:46.952Z,16.88
2022-12-09T08:55:46.986Z,16.88
2022-12-09T08:56:46.860Z,16.88
2022-12-09T08:57:47.084Z,16.88
2022-12-09T08:58:46.758Z,16.88
2022-12-09T08:59:46.812Z,16.88
2022-12-09T09:00:46.786Z,16.88
2022-12-09T09:01:47.367Z,16.88
2022-12-09T09:02:47.018Z,16.88
2022-12-09T09:03:46.986Z,16.88
2022-12-09T09:04:47.488Z,16.88
2022-12-09T09:05:46.978Z,16.88
2022-12-09T09:06:46.799Z,16.88
2022-12-09T09:07:46.919Z,16.88
2022-12-09T09:08:46.809Z,16.88
2022-12-09T09:09:47.135Z,22.50
2022-12-09T09:10:46.820Z,22.50
2022-12-09T09:11:46.725Z,22.50
2022-12-09T09:12:47.033Z,22.50
2022-12-09T09:13:46.926Z,22.50
2022-12-09T09:14:47.004Z,22.50
2022-12-09T09:15:47.165Z,28.13
2022-12-09T09:16:46.777Z,28.13
2022-12-09T09:17:51.284Z,28.13
2022-12-09T09:18:46.850Z,28.13
2022-12-09T09:19:46.588Z,28.13
2022-12-09T09:20:46.981Z,22.50
2022-12-09T09:21:46.601Z,22.50
2022-12-09T09:22:47.012Z,22.50
2022-12-09T09:23:46.801Z,22.50
2022-12-09T09:24:46.886Z,22.50
2022-12-09T09:25:46.943Z,22.50
2022-12-09T09:26:46.937Z,22.50
2022-12-09T09:27:46.525Z,22.50
2022-12-09T09:28:46.585Z,28.13
2022-12-09T09:29:46.924Z,28.13
2022-12-09T09:30:46.574Z,28.13
2022-12-09T09:31:46.563Z,28.13
2022-12-09T09:32:46.518Z,28.13
2022-12-09T09:33:46.990Z,28.13
2022-12-09T09:34:46.773Z,28.13
2022-12-09T09:35:46.829Z,28.13
2022-12-09T09:36:46.847Z,28.13
2022-12-09T09:37:46.507Z,28.13
2022-12-09T09:38:46.532Z,28.13
2022-12-09T09:39:46.605Z,28.13
2022-12-09T09:40:46.436Z,28.13
2022-12-09T09:41:46.648Z,28.13
2022-12-09T09:42:46.528Z,28.13
2022-12-09T09:43:46.521Z,28.13
2022-12-09T09:44:46.422Z,28.13
2022-12-09T09:45:46.500Z,28.13
2022-12-09T09:46:46.871Z,28.13
2022-12-09T09:47:46.405Z,28.13
2022-12-09T09:48:46.360Z,28.13
2022-12-09T09:49:46.369Z,28.13
2022-12-09T09:50:46.369Z,28.13
2022-12-09T09:51:46.779Z,28.13
2022-12-09T09:52:46.713Z,28.13
2022-12-09T09:53:46.234Z,28.13
2022-12-09T09:54:46.584Z,33.75
2022-12-09T09:55:46.193Z,33.75
2022-12-09T09:56:46.533Z,33.75
2022-12-09T09:57:46.506Z,33.75
2022-12-09T09:58:46.520Z,33.75
2022-12-09T09:59:46.307Z,39.38
2022-12-09T10:00:46.258Z,39.38
2022-12-09T10:01:46.747Z,39.38
2022-12-09T10:02:46.428Z,45.00
2022-12-09T10:03:46.398Z,45.00
2022-12-09T10:04:46.292Z,45.00
2022-12-09T10:05:46.791Z,39.38
2022-12-09T10:06:46.680Z,45.00
2022-12-09T10:07:46.372Z,50.63
2022-12-09T10:08:46.721Z,56.25
2022-12-09T10:09:46.191Z,56.25
2022-12-09T10:10:46.530Z,56.25
2022-12-09T10:11:46.382Z,45.00
2022-12-09T10:12:46.280Z,39.38
2022-12-09T10:13:46.261Z,39.38
2022-12-09T10:14:46.650Z,39.38
2022-12-09T10:15:46.365Z,39.38
2022-12-09T10:16:46.604Z,39.38
2022-12-09T10:17:46.161Z,45.00
2022-12-09T10:18:46.416Z,45.00
2022-12-09T10:19:46.091Z,50.63
2022-12-09T10:20:46.130Z,50.63
2022-12-09T10:21:46.114Z,45.00
2022-12-09T10:22:46.543Z,33.75
2022-12-09T10:23:46.141Z,28.13
2022-12-09T10:24:46.073Z,28.13
2022-12-09T10:25:46.385Z,28.13
2022-12-09T10:26:45.926Z,33.75
2022-12-09T10:27:46.011Z,33.75
2022-12-09T10:28:45.869Z,33.75
2022-12-09T10:29:45.898Z,33.75
2022-12-09T10:30:46.039Z,33.75
2022-12-09T10:31:45.980Z,33.75
2022-12-09T10:32:45.914Z,33.75
2022-12-09T10:33:46.326Z,33.75
2022-12-09T10:34:45.976Z,33.75
2022-12-09T10:35:45.934Z,28.13
2022-12-09T10:36:46.116Z,28.13
2022-12-09T10:37:45.987Z,28.13
2022-12-09T10:38:46.032Z,28.13
2022-12-09T10:39:45.930Z,28.13
2022-12-09T10:40:46.068Z,28.13
2022-12-09T10:41:46.216Z,33.75
2022-12-09T10:42:46.195Z,33.75
2022-12-09T10:43:45.966Z,33.75
2022-12-09T10:44:45.814Z,33.75
2022-12-09T10:46:16.789Z,33.75
2022-12-09T10:46:45.901Z,39.38
2022-12-09T10:47:45.716Z,39.38
2022-12-09T10:48:46.243Z,39.38
2022-12-09T10:49:46.142Z,39.38
2022-12-09T10:50:46.141Z,39.38
2022-12-09T10:51:46.083Z,33.75
2022-12-09T10:52:46.085Z,33.75
2022-12-09T10:53:46.039Z,39.38
2022-12-09T10:54:45.678Z,39.38
2022-12-09T10:55:45.601Z,45.00
2022-12-09T10:56:45.645Z,50.63
2022-12-09T10:57:45.951Z,50.63
2022-12-09T10:58:46.007Z,50.63
2022-12-09T10:59:45.651Z,50.63
2022-12-09T11:00:46.019Z,50.63
2022-12-09T11:01:45.893Z,50.63
2022-12-09T11:02:46.067Z,45.00
2022-12-09T11:03:45.750Z,45.00
2022-12-09T11:04:46.058Z,45.00
2022-12-09T11:05:45.996Z,45.00
2022-12-09T11:06:45.896Z,39.38
2022-12-09T11:07:45.740Z,39.38
2022-12-09T11:08:46.047Z,39.38
2022-12-09T11:09:45.791Z,33.75
2022-12-09T11:10:45.885Z,33.75
2022-12-09T11:11:45.664Z,33.75
2022-12-09T11:12:45.782Z,39.38
2022-12-09T11:13:45.602Z,33.75
2022-12-09T11:14:45.408Z,33.75
2022-12-09T11:15:46.097Z,33.75
2022-12-09T11:16:45.700Z,39.38
2022-12-09T11:17:49.339Z,39.38
2022-12-09T11:18:45.653Z,39.38
2022-12-09T11:19:45.550Z,39.38
2022-12-09T11:20:45.519Z,39.38
2022-12-09T11:21:45.496Z,45.00
2022-12-09T11:22:45.876Z,45.00
2022-12-09T11:23:45.578Z,45.00
2022-12-09T11:24:45.894Z,50.63
2022-12-09T11:25:45.330Z,45.00
2022-12-09T11:26:45.317Z,45.00
2022-12-09T11:27:45.485Z,39.38
2022-12-09T11:28:45.368Z,39.38
2022-12-09T11:29:45.529Z,39.38
2022-12-09T11:31:04.891Z,39.38
2022-12-09T11:31:45.472Z,39.38
2022-12-09T11:32:45.558Z,33.75
2022-12-09T11:33:45.784Z,33.75
2022-12-09T11:34:45.428Z,33.75
2022-12-09T11:35:45.887Z,33.75
2022-12-09T11:36:45.215Z,33.75
2022-12-09T11:37:45.196Z,33.75
2022-12-09T11:38:45.411Z,33.75
2022-12-09T11:39:45.209Z,28.13
2022-12-09T11:40:45.163Z,33.75
2022-12-09T11:41:45.150Z,33.75
2022-12-09T11:42:45.156Z,33.75
2022-12-09T11:43:45.151Z,33.75
2022-12-09T11:44:45.132Z,33.75
2022-12-09T11:45:45.115Z,33.75
2022-12-09T11:46:45.146Z,39.38
2022-12-09T11:48:21.530Z,39.38
2022-12-09T11:48:45.176Z,33.75
2022-12-09T11:49:45.150Z,33.75
2022-12-09T11:50:45.171Z,33.75
2022-12-09T11:51:45.089Z,33.75
2022-12-09T11:52:45.054Z,33.75
2022-12-09T11:53:45.071Z,33.75
2022-12-09T11:54:45.036Z,33.75
2022-12-09T11:55:45.074Z,33.75
2022-12-09T11:56:45.012Z,33.75
2022-12-09T11:57:44.997Z,33.75
2022-12-09T11:58:44.989Z,28.13
2022-12-09T11:59:44.989Z,28.13
2022-12-09T12:00:44.973Z,28.13
2022-12-09T12:01:45.003Z,28.13
2022-12-09T12:02:45.001Z,28.13
2022-12-09T12:03:45.005Z,28.13
2022-12-09T12:04:44.970Z,28.13
2022-12-09T12:05:44.971Z,28.13
2022-12-09T12:06:44.928Z,28.13
2022-12-09T12:07:44.953Z,28.13
2022-12-09T12:08:44.975Z,28.13
2022-12-09T12:09:44.912Z,28.13
2022-12-09T12:10:44.878Z,28.13
2022-12-09T12:11:44.867Z,28.13
2022-12-09T12:12:44.859Z,28.13
2022-12-09T12:13:44.847Z,28.13
2022-12-09T12:14:44.830Z,28.13
2022-12-09T12:15:44.829Z,33.75
2022-12-09T12:16:44.812Z,33.75
2022-12-09T12:17:44.875Z,28.13
2022-12-09T12:18:44.802Z,28.13
2022-12-09T12:19:44.800Z,33.75
2022-12-09T12:20:44.771Z,33.75
2022-12-09T12:21:44.786Z,39.38
2022-12-09T12:22:45.607Z,39.38
2022-12-09T12:23:44.747Z,33.75
2022-12-09T12:24:44.752Z,33.75
2022-12-09T12:25:44.730Z,28.13
2022-12-09T12:26:44.735Z,28.13
2022-12-09T12:27:44.713Z,28.13
2022-12-09T12:28:46.058Z,28.13
2022-12-09T12:29:44.690Z,28.13
2022-12-09T12:30:44.711Z,28.13
2022-12-09T12:31:44.754Z,28.13
2022-12-09T12:32:44.684Z,28.13
2022-12-09T12:34:22.877Z,28.13
2022-12-09T12:34:44.654Z,28.13
2022-12-09T12:35:44.701Z,28.13
2022-12-09T12:36:44.618Z,28.13
2022-12-09T12:37:44.604Z,22.50
2022-12-09T12:38:44.633Z,22.50
2022-12-09T12:39:44.603Z,22.50
2022-12-09T12:40:44.574Z,22.50
2022-12-09T12:41:44.672Z,22.50
2022-12-09T12:42:44.570Z,22.50
2022-12-09T12:43:44.574Z,16.88
2022-12-09T12:44:44.556Z,16.88
2022-12-09T12:45:44.590Z,16.88
2022-12-09T12:46:44.514Z,16.88
2022-12-09T12:47:44.773Z,16.88
2022-12-09T12:48:44.608Z,16.88
2022-12-09T12:49:44.519Z,16.88
2022-12-09T12:50:44.521Z,16.88
2022-12-09T12:51:46.357Z,16.88
2022-12-09T12:52:56.206Z,16.88
2022-12-09T12:53:44.603Z,16.88
2022-12-09T12:54:44.709Z,22.50
2022-12-09T12:55:44.444Z,22.50
2022-12-09T12:56:44.436Z,22.50
2022-12-09T12:57:44.473Z,28.13
2022-12-09T12:58:44.428Z,28.13
2022-12-09T12:59:44.434Z,28.13
2022-12-09T13:00:44.539Z,22.50
2022-12-09T13:01:44.387Z,28.13
2022-12-09T13:02:44.420Z,22.50
2022-12-09T13:03:44.388Z,22.50
2022-12-09T13:04:44.459Z,22.50
2022-12-09T13:05:44.486Z,22.50
2022-12-09T13:06:44.323Z,22.50
2022-12-09T13:07:44.398Z,22.50
2022-12-09T13:08:44.344Z,22.50